createdAt,value
2022-09-06T00:00:09.592Z,3.45
2022-09-06T00:03:19.983Z,2.92
2022-09-06T00:06:27.326Z,3.22
2022-09-06T00:09:34.587Z,2.95
2022-09-06T00:12:42.117Z,3.00
2022-09-06T00:15:49.459Z,2.80
2022-09-06T00:18:56.829Z,2.90
2022-09-06T00:22:04.222Z,2.95
2022-09-06T00:25:12.000Z,3.50
2022-09-06T00:28:19.807Z,3.08
2022-09-06T00:31:27.566Z,2.90
2022-09-06T00:34:34.911Z,3.10
2022-09-06T00:37:42.221Z,2.83
2022-09-06T00:40:49.511Z,2.83
2022-09-06T00:43:57.219Z,3.00
2022-09-06T00:47:05.533Z,2.90
2022-09-06T00:50:13.917Z,3.05
2022-09-06T00:53:21.334Z,2.55
2022-09-06T00:56:29.182Z,3.25
2022-09-06T00:59:37.659Z,3.20
2022-09-06T01:02:45.160Z,3.00
2022-09-06T01:06:12.737Z,3.47
2022-09-06T01:09:28.604Z,2.78
2022-09-06T01:12:48.524Z,2.65
2022-09-06T01:16:08.364Z,2.97
2022-09-06T01:19:27.874Z,2.67
2022-09-06T01:22:48.443Z,3.15
2022-09-06T01:26:03.720Z,2.88
2022-09-06T01:29:21.144Z,2.60
2022-09-06T01:32:31.564Z,2.67
2022-09-06T01:35:47.976Z,2.90
2022-09-06T01:38:55.486Z,2.83
2022-09-06T01:42:05.889Z,3.05
2022-09-06T01:45:15.937Z,2.92
2022-09-06T01:48:41.722Z,2.55
2022-09-06T01:51:58.139Z,2.80
2022-09-06T01:55:10.528Z,2.97
2022-09-06T01:58:36.283Z,2.90
2022-09-06T02:01:43.574Z,2.90
2022-09-06T02:05:01.555Z,2.90
2022-09-06T02:08:11.395Z,3.05
2022-09-06T02:11:18.798Z,3.10
2022-09-06T02:14:31.293Z,3.40
2022-09-06T02:17:40.813Z,3.42
2022-09-06T02:20:54.025Z,2.95
2022-09-06T02:24:03.365Z,4.28
2022-09-06T02:27:11.817Z,3.50
2022-09-06T02:30:19.132Z,3.95
2022-09-06T02:33:28.563Z,3.90
2022-09-06T02:36:36.518Z,4.07
2022-09-06T02:39:44.070Z,4.07
2022-09-06T02:42:51.370Z,3.85
2022-09-06T02:45:58.866Z,4.10
2022-09-06T02:49:06.212Z,3.83
2022-09-06T02:52:13.481Z,4.10
2022-09-06T02:55:20.709Z,3.90
2022-09-06T02:58:28.402Z,4.43
2022-09-06T03:01:35.890Z,3.40
2022-09-06T03:04:43.178Z,3.45
2022-09-06T03:07:50.809Z,4.30
2022-09-06T03:10:58.064Z,3.78
2022-09-06T03:14:05.370Z,3.83
2022-09-06T03:17:12.623Z,3.80
2022-09-06T03:20:19.893Z,4.00
2022-09-06T03:23:28.430Z,4.28
2022-09-06T03:26:35.776Z,3.97
2022-09-06T03:29:43.037Z,4.50
2022-09-06T03:32:50.397Z,4.65
2022-09-06T03:35:58.707Z,5.22
2022-09-06T03:39:07.181Z,5.60
2022-09-06T03:42:14.445Z,5.63
2022-09-06T03:45:21.747Z,5.03
2022-09-06T03:48:29.705Z,5.15
2022-09-06T03:51:38.489Z,5.72
2022-09-06T03:54:45.765Z,4.82
2022-09-06T03:57:53.054Z,5.68
2022-09-06T04:01:04.947Z,4.95
2022-09-06T04:04:12.330Z,4.47
2022-09-06T04:07:19.605Z,4.85
2022-09-06T04:10:26.986Z,5.03
2022-09-06T04:13:35.179Z,4.50
2022-09-06T04:16:42.583Z,4.68
2022-09-06T04:19:49.928Z,4.30
2022-09-06T04:22:57.304Z,4.50
2022-09-06T04:26:04.743Z,4.28
2022-09-06T04:29:12.144Z,4.18
2022-09-06T04:32:19.571Z,3.05
2022-09-06T04:35:26.869Z,3.50
2022-09-06T04:38:38.433Z,3.45
2022-09-06T04:41:45.797Z,3.42
2022-09-06T04:44:53.090Z,3.80
2022-09-06T04:48:00.371Z,3.53
2022-09-06T04:51:07.611Z,3.42
2022-09-06T04:54:14.956Z,3.50
2022-09-06T04:57:22.273Z,3.90
2022-09-06T05:00:30.313Z,3.33
2022-09-06T05:03:37.686Z,3.45
2022-09-06T05:06:45.525Z,3.35
2022-09-06T05:09:52.906Z,3.08
2022-09-06T05:13:00.197Z,2.80
2022-09-06T05:16:08.046Z,2.90
2022-09-06T05:19:15.604Z,2.95
2022-09-06T05:22:22.952Z,2.80
2022-09-06T05:25:30.499Z,3.00
2022-09-06T05:28:37.847Z,2.80
2022-09-06T05:31:45.200Z,2.90
2022-09-06T05:34:53.301Z,2.83
2022-09-06T05:38:00.955Z,2.90
2022-09-06T05:41:08.245Z,2.88
2022-09-06T05:44:15.541Z,2.80
2022-09-06T05:47:22.819Z,2.70
2022-09-06T05:50:30.139Z,2.72
2022-09-06T05:53:38.596Z,3.28
2022-09-06T05:56:45.990Z,3.05
2022-09-06T05:59:56.023Z,3.03
2022-09-06T06:03:03.314Z,3.30
2022-09-06T06:06:10.624Z,2.92
2022-09-06T06:09:18.086Z,2.88
2022-09-06T06:12:25.521Z,3.00
2022-09-06T06:15:32.818Z,3.33
2022-09-06T06:18:40.424Z,3.05
2022-09-06T06:21:47.681Z,3.13
2022-09-06T06:24:55.003Z,3.08
2022-09-06T06:28:02.326Z,2.15
2022-09-06T06:31:10.900Z,2.20
2022-09-06T06:34:21.827Z,1.83
2022-09-06T06:37:29.107Z,2.22
2022-09-06T06:40:36.611Z,2.10
2022-09-06T06:43:44.259Z,1.83
2022-09-06T06:46:52.125Z,2.30
2022-09-06T06:49:59.424Z,2.03
2022-09-06T06:53:06.894Z,2.05
2022-09-06T06:56:14.339Z,2.08
2022-09-06T06:59:21.791Z,2.22
2022-09-06T07:02:29.161Z,1.63
2022-09-06T07:09:03.951Z,2.08
2022-09-06T07:12:11.259Z,1.90
2022-09-06T07:15:19.041Z,2.00
2022-09-06T07:18:26.367Z,2.15
2022-09-06T07:24:44.006Z,1.85
2022-09-06T07:28:05.731Z,2.00
2022-09-06T07:34:41.718Z,2.28
2022-09-06T07:37:58.650Z,1.80
2022-09-06T07:41:07.198Z,2.08
2022-09-06T07:44:14.568Z,2.38
2022-09-06T07:50:49.771Z,2.40
2022-09-06T07:54:19.369Z,2.40
2022-09-06T07:57:25.427Z,2.13
2022-09-06T08:00:32.916Z,2.28
2022-09-06T08:03:40.291Z,2.03
2022-09-06T08:10:18.438Z,3.90
2022-09-06T08:13:26.056Z,3.72
2022-09-06T08:16:34.326Z,3.67
2022-09-06T08:19:41.789Z,3.97
2022-09-06T08:22:49.117Z,3.50
2022-09-06T08:25:57.558Z,4.05
2022-09-06T08:29:06.907Z,3.60
2022-09-06T08:32:14.320Z,3.53
2022-09-06T08:35:21.679Z,3.63
2022-09-06T08:38:28.951Z,3.22
2022-09-06T08:41:56.522Z,3.20
2022-09-06T08:45:09.074Z,2.50
2022-09-06T08:48:16.462Z,2.90
2022-09-06T08:51:38.639Z,2.40
2022-09-06T08:54:53.979Z,2.60
2022-09-06T08:58:10.155Z,2.70
2022-09-06T09:01:19.346Z,3.95
2022-09-06T09:04:28.312Z,4.65
2022-09-06T09:07:43.485Z,2.70
2022-09-06T09:10:54.902Z,2.50
2022-09-06T09:14:05.036Z,2.75
2022-09-06T09:17:15.624Z,2.25
2022-09-06T09:20:23.125Z,3.08
2022-09-06T09:23:31.051Z,2.88
2022-09-06T09:26:59.358Z,2.88
2022-09-06T09:33:35.800Z,2.60
2022-09-06T09:40:38.987Z,2.95
2022-09-06T09:43:57.239Z,2.80
2022-09-06T09:47:21.875Z,2.67
2022-09-06T09:50:33.468Z,3.03
2022-09-06T09:53:49.349Z,3.50
2022-09-06T09:56:56.827Z,3.25
2022-09-06T10:00:06.676Z,3.03
2022-09-06T10:03:15.181Z,2.90
2022-09-06T10:09:56.584Z,3.00
2022-09-06T10:13:07.066Z,4.20
2022-09-06T10:16:14.413Z,4.13
2022-09-06T10:19:23.381Z,4.03
2022-09-06T10:22:31.894Z,3.33
2022-09-06T10:25:44.047Z,3.63
2022-09-06T10:28:59.010Z,4.07
2022-09-06T10:32:26.428Z,3.53
2022-09-06T10:35:40.072Z,3.70
2022-09-06T10:39:03.483Z,3.42
2022-09-06T10:42:14.749Z,3.38
2022-09-06T10:45:37.120Z,3.58
2022-09-06T10:48:47.754Z,4.28
2022-09-06T10:52:01.292Z,3.92
2022-09-06T10:55:11.788Z,3.45
2022-09-06T10:58:25.071Z,3.67
2022-09-06T11:01:50.889Z,3.20
2022-09-06T11:08:53.517Z,3.90
2022-09-06T11:12:07.071Z,4.35
2022-09-06T11:15:15.071Z,3.70
2022-09-06T11:18:39.797Z,3.85
2022-09-06T11:22:05.896Z,4.15
2022-09-06T11:25:25.493Z,4.45
2022-09-06T11:28:38.504Z,4.43
2022-09-06T11:35:26.097Z,4.35
2022-09-06T11:38:33.421Z,4.30
2022-09-06T11:41:42.495Z,5.20
2022-09-06T11:44:49.842Z,4.22
2022-09-06T11:48:17.054Z,4.47
2022-09-06T11:51:50.777Z,4.63
2022-09-06T11:54:58.154Z,4.57
2022-09-06T11:58:17.787Z,4.38
2022-09-06T12:01:25.091Z,3.80
2022-09-06T12:05:07.401Z,4.25
2022-09-06T12:08:24.688Z,4.30
2022-09-06T12:11:41.765Z,3.85
2022-09-06T12:14:49.250Z,3.70
2022-09-06T12:17:57.727Z,3.95
2022-09-06T12:21:05.128Z,4.32
2022-09-06T12:24:31.400Z,3.53
2022-09-06T12:27:40.066Z,3.55
2022-09-06T12:30:48.131Z,4.03
2022-09-06T12:33:56.902Z,3.85
2022-09-06T12:37:05.625Z,3.45
2022-09-06T12:40:14.354Z,4.25
2022-09-06T12:43:21.785Z,4.03
2022-09-06T12:46:29.921Z,3.83
2022-09-06T12:49:37.291Z,3.85
2022-09-06T12:52:55.005Z,3.78
2022-09-06T12:56:06.621Z,4.40
2022-09-06T12:59:25.171Z,4.15
2022-09-06T13:02:36.803Z,3.63
2022-09-06T13:05:45.284Z,3.80
2022-09-06T13:08:53.817Z,3.20
2022-09-06T13:12:04.902Z,4.13
2022-09-06T13:15:32.489Z,3.20
2022-09-06T13:18:39.909Z,3.65
2022-09-06T13:21:47.465Z,4.10
2022-09-06T13:24:56.028Z,3.72
2022-09-06T13:28:03.667Z,3.60
2022-09-06T13:31:14.111Z,4.25
2022-09-06T13:34:28.811Z,3.13
2022-09-06T13:37:39.450Z,3.42
2022-09-06T13:41:10.129Z,3.20
2022-09-06T13:44:14.277Z,2.58
2022-09-06T13:47:21.781Z,2.63
2022-09-06T13:50:29.106Z,2.88
2022-09-06T13:53:36.646Z,2.10
2022-09-06T13:56:44.796Z,2.42
2022-09-06T13:59:52.164Z,2.30
2022-09-06T14:02:59.474Z,1.80
2022-09-06T14:06:09.815Z,2.33
2022-09-06T14:09:17.187Z,2.80
2022-09-06T14:12:24.402Z,2.13
2022-09-06T14:15:31.724Z,2.33
2022-09-06T14:18:39.040Z,2.10
2022-09-06T14:21:46.297Z,2.10
2022-09-06T14:24:53.801Z,2.13
2022-09-06T14:28:01.707Z,1.70
2022-09-06T14:31:09.649Z,2.00
2022-09-06T14:34:17.086Z,1.55
2022-09-06T14:37:24.356Z,1.50
2022-09-06T14:40:34.145Z,1.70
2022-09-06T14:43:47.429Z,2.10
2022-09-06T14:46:54.866Z,1.83
2022-09-06T14:50:02.206Z,1.80
2022-09-06T14:53:30.084Z,2.00
2022-09-06T14:56:38.220Z,1.67
2022-09-06T14:59:45.621Z,1.98
2022-09-06T15:02:54.535Z,1.90
2022-09-06T15:06:02.784Z,1.95
2022-09-06T15:09:11.418Z,1.63
2022-09-06T15:12:19.567Z,1.88
2022-09-06T15:15:26.905Z,2.20
2022-09-06T15:18:34.662Z,2.08
2022-09-06T15:21:42.251Z,1.80
2022-09-06T15:24:50.413Z,1.80
2022-09-06T15:27:57.871Z,1.90
2022-09-06T15:31:06.102Z,2.00
2022-09-06T15:34:13.798Z,1.65
2022-09-06T15:37:21.103Z,1.50
2022-09-06T15:40:28.487Z,1.90
2022-09-06T15:43:36.587Z,2.15
2022-09-06T15:46:49.033Z,1.73
2022-09-06T15:49:57.425Z,1.75
2022-09-06T15:53:04.717Z,2.45
2022-09-06T15:56:13.834Z,1.88
2022-09-06T15:59:21.152Z,1.63
2022-09-06T16:02:28.468Z,2.10
2022-09-06T16:09:20.516Z,1.88
2022-09-06T16:12:27.859Z,1.77
2022-09-06T16:15:35.386Z,2.00
2022-09-06T16:18:43.650Z,1.90
2022-09-06T16:21:51.456Z,1.63
2022-09-06T16:24:58.814Z,2.10
2022-09-06T16:28:06.104Z,2.05
2022-09-06T16:31:13.615Z,2.10
2022-09-06T16:34:21.048Z,1.95
2022-09-06T16:37:28.299Z,1.92
2022-09-06T16:40:36.756Z,1.67
2022-09-06T16:43:44.686Z,2.47
2022-09-06T16:46:53.855Z,2.65
2022-09-06T16:50:03.819Z,2.63
2022-09-06T16:53:11.217Z,2.00
2022-09-06T16:56:21.201Z,1.70
2022-09-06T16:59:28.564Z,2.20
2022-09-06T17:02:35.928Z,2.75
2022-09-06T17:05:43.367Z,2.13
2022-09-06T17:08:58.471Z,2.25
2022-09-06T17:12:06.023Z,2.00
2022-09-06T17:15:13.429Z,1.65
2022-09-06T17:18:22.165Z,2.03
2022-09-06T17:21:30.303Z,2.00
2022-09-06T17:24:38.518Z,1.90
2022-09-06T17:27:45.830Z,2.15
2022-09-06T17:30:53.533Z,1.98
2022-09-06T17:34:00.931Z,2.00
2022-09-06T17:37:08.284Z,2.20
2022-09-06T17:40:15.636Z,2.05
2022-09-06T17:43:23.009Z,1.77
2022-09-06T17:46:30.582Z,2.00
2022-09-06T17:49:38.005Z,2.42
2022-09-06T17:52:45.330Z,2.40
2022-09-06T17:55:52.751Z,2.47
2022-09-06T17:59:04.768Z,2.10
2022-09-06T18:02:12.088Z,2.17
2022-09-06T18:05:19.464Z,1.95
2022-09-06T18:08:27.057Z,2.28
2022-09-06T18:11:34.557Z,2.10
2022-09-06T18:14:41.912Z,2.80
2022-09-06T18:17:49.634Z,2.50
2022-09-06T18:20:56.961Z,2.60
2022-09-06T18:24:04.738Z,2.70
2022-09-06T18:27:12.014Z,2.30
2022-09-06T18:30:19.305Z,2.55
2022-09-06T18:33:27.186Z,2.42
2022-09-06T18:36:34.620Z,3.17
2022-09-06T18:39:42.527Z,3.63
2022-09-06T18:42:49.946Z,3.03
2022-09-06T18:46:00.950Z,2.90
2022-09-06T18:49:08.715Z,2.28
2022-09-06T18:52:16.396Z,2.92
2022-09-06T18:55:23.950Z,2.40
2022-09-06T18:58:31.456Z,2.58
2022-09-06T19:01:38.981Z,2.00
2022-09-06T19:04:47.331Z,2.55
2022-09-06T19:07:54.726Z,2.45
2022-09-06T19:11:04.965Z,2.45
2022-09-06T19:14:12.544Z,2.90
2022-09-06T19:17:19.922Z,3.20
2022-09-06T19:20:27.357Z,2.83
2022-09-06T19:23:35.771Z,2.55
2022-09-06T19:26:44.206Z,3.10
2022-09-06T19:29:51.549Z,2.42
2022-09-06T19:32:58.863Z,2.75
2022-09-06T19:36:11.990Z,2.92
2022-09-06T19:39:21.452Z,3.08
2022-09-06T19:42:29.074Z,2.42
2022-09-06T19:45:39.436Z,2.60
2022-09-06T19:48:47.841Z,2.42
2022-09-06T19:51:55.318Z,2.65
2022-09-06T19:55:02.681Z,2.65
2022-09-06T19:58:10.045Z,3.03
2022-09-06T20:01:18.144Z,2.40
2022-09-06T20:04:28.069Z,2.40
2022-09-06T20:07:35.360Z,2.70
2022-09-06T20:10:51.520Z,2.70
2022-09-06T20:13:59.363Z,2.60
2022-09-06T20:17:32.275Z,3.53
2022-09-06T20:20:34.358Z,2.20
2022-09-06T20:23:41.744Z,2.45
2022-09-06T20:26:51.122Z,2.83
2022-09-06T20:29:59.182Z,3.28
2022-09-06T20:33:06.426Z,2.78
2022-09-06T20:36:13.889Z,2.90
2022-09-06T20:39:21.200Z,2.38
2022-09-06T20:42:28.495Z,2.80
2022-09-06T20:45:35.762Z,2.70
2022-09-06T20:48:44.978Z,2.83
2022-09-06T20:51:52.456Z,2.85
2022-09-06T20:54:59.721Z,2.67
2022-09-06T20:58:07.087Z,3.00
2022-09-06T21:01:15.921Z,2.80
2022-09-06T21:04:23.467Z,3.00
2022-09-06T21:07:30.828Z,2.72
2022-09-06T21:10:38.147Z,2.55
2022-09-06T21:13:48.266Z,2.78
2022-09-06T21:16:55.657Z,2.50
2022-09-06T21:20:03.162Z,2.67
2022-09-06T21:23:10.433Z,2.80
2022-09-06T21:26:18.016Z,3.03
2022-09-06T21:29:25.384Z,2.95
2022-09-06T21:32:32.624Z,3.28
2022-09-06T21:35:39.953Z,3.20
2022-09-06T21:38:48.491Z,3.00
2022-09-06T21:41:55.844Z,3.33
2022-09-06T21:45:03.272Z,3.25
2022-09-06T21:48:10.621Z,3.42
2022-09-06T21:51:19.656Z,3.03
2022-09-06T21:54:26.958Z,3.53
2022-09-06T21:57:34.286Z,2.95
2022-09-06T22:00:41.631Z,3.08
2022-09-06T22:03:49.327Z,3.28
2022-09-06T22:06:56.687Z,3.70
2022-09-06T22:10:04.062Z,3.42
2022-09-06T22:13:11.410Z,4.32
2022-09-06T22:16:20.322Z,3.78
2022-09-06T22:19:27.583Z,3.70
2022-09-06T22:22:35.158Z,3.15
2022-09-06T22:25:42.942Z,3.55
2022-09-06T22:28:57.819Z,3.30
2022-09-06T22:32:05.203Z,3.72
2022-09-06T22:35:12.536Z,3.10
2022-09-06T22:38:20.052Z,3.78
2022-09-06T22:41:28.573Z,3.35
2022-09-06T22:44:35.898Z,4.05
2022-09-06T22:47:43.232Z,3.60
2022-09-06T22:50:50.512Z,3.55
2022-09-06T22:53:57.836Z,4.40
2022-09-06T22:57:05.193Z,3.90
2022-09-06T23:00:12.810Z,4.22
2022-09-06T23:03:20.248Z,4.38
2022-09-06T23:06:28.192Z,4.35
2022-09-06T23:09:35.456Z,3.90
2022-09-06T23:12:42.884Z,4.65
2022-09-06T23:15:50.305Z,4.50
2022-09-06T23:18:57.670Z,3.85
2022-09-06T23:22:04.945Z,3.30
2022-09-06T23:25:12.426Z,4.25
2022-09-06T23:28:20.234Z,4.60
2022-09-06T23:31:28.760Z,4.32
2022-09-06T23:34:37.020Z,5.03
2022-09-06T23:37:44.295Z,5.60
2022-09-06T23:40:51.682Z,5.80
2022-09-06T23:43:59.044Z,5.50
2022-09-06T23:47:06.580Z,5.50
2022-09-06T23:50:14.249Z,5.07
2022-09-06T23:53:21.656Z,5.53
2022-09-06T23:56:28.948Z,4.25
2022-09-06T23:59:36.183Z,4.50
